Airfield :
LOGIN :

Register | Disclaimer

   EN    FR    IT 

 










Legend :    VFR   Marginal VFR   IFR   Intensive IFR   Very Intensive IFR
Visi :
Ceiling :
>= 8 km
>= 3000ft
5 to 8 km
1000 to 3000 ft
1500m to 5 km
500 to 1000 ft
800 to 1500m
200 to 500 ft
< 800m
< 200 ft
Symbols :   Thunderstorms  Fog  Heavy snow  Heavy precipitations  Wind > 20 kt
SIGMETs :     Misc.  Thunderstorms  Icing  Turbulence  Mountain Waves  Volcanic Ashes






- Airport Elevation : 188 ft
- IATA code : ORB


ESOE - Örebro

CURRENT METAR :
  • 171750Z 22006KT CAVOK 14/08 Q1001

EXPIRED METARs :
  • 171720Z 23006KT 210V270 CAVOK 15/08 Q1001
  • 171650Z 23007KT CAVOK 15/08 Q1001
  • 171620Z 25007KT 210V290 9999 SCT045 14/08 Q1001
  • 171550Z 26013KT 9999 VCSH FEW030CB BKN045 14/07 Q1001
  • 171520Z 21008KT 9999 BKN045 16/08 Q1000

TAF TAF ESOE
Valid from the 17 at 18:00 until the 17 at 22:00 UTC


171730Z 1718/1722 21005KT 9999 SCT045
PROB40 1718/1719 SHRA BKN020CB



MET'MAP, your aeronautical weather chart ! - Copyright ORBIFLY December 2007 - Disclaimer

ORBIFLY MET'MAP TEAM :

Programming & Development : Alexandra Zaïnal
Concept & original design : Baudouin d'Aumeries
Assistance for programming : Marc-Olivier Méhu
Technical & hardware support : Manuel Goepfert

Contact : metmap@orbifly.com




SOURCES & CREDITS :

   NOAA